createdAt,value
2023-01-17T00:02:02.815Z,86.50
2023-01-17T00:04:48.887Z,85.92
2023-01-17T00:07:36.630Z,86.45
2023-01-17T00:10:07.512Z,86.57
2023-01-17T00:12:35.059Z,87.01
2023-01-17T00:15:02.785Z,86.92
2023-01-17T00:17:31.519Z,87.24
2023-01-17T00:20:19.313Z,87.28
2023-01-17T00:23:06.498Z,86.62
2023-01-17T00:25:55.884Z,86.01
2023-01-17T00:28:23.409Z,86.04
2023-01-17T00:30:50.679Z,86.04
2023-01-17T00:33:19.480Z,85.42
2023-01-17T00:35:47.290Z,86.11
2023-01-17T00:38:16.511Z,85.93
2023-01-17T00:40:45.220Z,86.08
2023-01-17T00:43:32.679Z,86.55
2023-01-17T00:46:18.387Z,85.24
2023-01-17T00:49:05.718Z,85.37
2023-01-17T00:51:52.930Z,85.72
2023-01-17T00:54:39.159Z,86.70
2023-01-17T00:57:26.848Z,86.35
2023-01-17T01:00:12.595Z,86.74
2023-01-17T01:02:58.677Z,85.21
2023-01-17T01:05:45.907Z,86.14
2023-01-17T01:08:37.232Z,86.47
2023-01-17T01:11:28.030Z,86.00
2023-01-17T01:14:14.215Z,86.15
2023-01-17T01:17:00.147Z,86.38
2023-01-17T01:19:46.103Z,86.14
2023-01-17T01:22:33.274Z,87.01
2023-01-17T01:25:19.428Z,86.83
2023-01-17T01:28:05.255Z,85.88
2023-01-17T01:30:51.189Z,86.55
2023-01-17T01:33:21.241Z,85.73
2023-01-17T01:35:50.617Z,86.66
2023-01-17T01:38:20.804Z,86.34
2023-01-17T01:40:49.949Z,86.44
2023-01-17T01:43:19.909Z,84.97
2023-01-17T01:45:52.851Z,85.71
2023-01-17T01:48:33.256Z,85.67
2023-01-17T01:51:03.420Z,86.05
2023-01-17T01:53:33.871Z,85.16
2023-01-17T01:56:01.645Z,85.88
2023-01-17T01:58:32.541Z,84.73
2023-01-17T02:01:00.214Z,84.67
2023-01-17T02:03:31.487Z,83.81
2023-01-17T02:06:04.459Z,82.80
2023-01-17T02:08:34.722Z,83.43
2023-01-17T02:11:03.137Z,83.47
2023-01-17T02:13:31.533Z,82.79
2023-01-17T02:16:08.937Z,83.35
2023-01-17T02:18:49.136Z,83.11
2023-01-17T02:21:24.528Z,83.60
2023-01-17T02:24:32.871Z,83.79
2023-01-17T02:27:06.220Z,84.05
2023-01-17T02:33:22.308Z,84.74
2023-01-17T02:35:58.191Z,84.39
2023-01-17T02:38:32.545Z,84.22
2023-01-17T02:41:03.981Z,84.45
2023-01-17T02:43:33.010Z,83.73
2023-01-17T02:46:00.352Z,84.18
2023-01-17T02:48:32.369Z,83.37
2023-01-17T02:51:28.479Z,83.51
2023-01-17T02:54:10.544Z,83.04
2023-01-17T02:56:49.195Z,82.42
2023-01-17T02:59:32.855Z,81.39
2023-01-17T03:02:16.451Z,82.97
2023-01-17T03:04:51.427Z,83.44
2023-01-17T03:07:23.730Z,82.50
2023-01-17T03:09:54.602Z,82.66
2023-01-17T03:12:22.116Z,82.98
2023-01-17T03:14:49.436Z,80.54
2023-01-17T03:17:16.909Z,81.94
2023-01-17T03:19:44.213Z,83.29
2023-01-17T03:22:11.592Z,82.05
2023-01-17T03:24:40.238Z,81.82
2023-01-17T03:27:07.558Z,82.13
2023-01-17T03:29:34.845Z,82.49
2023-01-17T03:32:02.126Z,81.05
2023-01-17T03:34:29.577Z,80.45
2023-01-17T03:36:56.991Z,80.48
2023-01-17T03:39:24.302Z,80.55
2023-01-17T03:41:52.969Z,81.05
2023-01-17T03:44:20.297Z,80.71
2023-01-17T03:46:47.607Z,80.81
2023-01-17T03:49:15.165Z,80.41
2023-01-17T03:51:42.568Z,81.26
2023-01-17T03:54:10.139Z,80.41
2023-01-17T03:56:37.376Z,81.41
2023-01-17T03:59:06.090Z,81.46
2023-01-17T04:01:33.558Z,82.21
2023-01-17T04:04:00.802Z,82.52
2023-01-17T04:06:28.601Z,82.80
2023-01-17T04:08:56.078Z,84.44
2023-01-17T04:11:23.661Z,84.23
2023-01-17T04:13:50.857Z,83.65
2023-01-17T04:16:20.694Z,84.12
2023-01-17T04:18:48.075Z,84.67
2023-01-17T04:21:15.378Z,83.15
2023-01-17T04:23:42.698Z,83.82
2023-01-17T04:26:11.469Z,83.50
2023-01-17T04:28:38.832Z,81.61
2023-01-17T04:31:07.556Z,82.22
2023-01-17T04:33:36.219Z,81.97
2023-01-17T04:36:03.690Z,81.68
2023-01-17T04:38:30.944Z,82.28
2023-01-17T04:40:58.181Z,82.84
2023-01-17T04:43:25.545Z,82.72
2023-01-17T04:45:55.433Z,83.04
2023-01-17T04:48:22.891Z,82.46
2023-01-17T04:50:51.701Z,80.69
2023-01-17T04:53:18.896Z,81.50
2023-01-17T04:55:46.771Z,82.69
2023-01-17T04:58:13.998Z,81.58
2023-01-17T05:00:41.272Z,81.93
2023-01-17T05:03:08.472Z,80.68
2023-01-17T05:05:35.696Z,81.36
2023-01-17T05:08:04.483Z,80.79
2023-01-17T05:10:31.684Z,81.06
2023-01-17T05:12:59.953Z,81.24
2023-01-17T05:15:27.904Z,81.32
2023-01-17T05:17:55.620Z,81.54
2023-01-17T05:20:25.858Z,81.77
2023-01-17T05:22:55.654Z,81.54
2023-01-17T05:25:25.603Z,81.74
2023-01-17T05:27:53.469Z,82.24
2023-01-17T05:30:21.446Z,81.59
2023-01-17T05:32:49.608Z,82.28
2023-01-17T05:35:17.067Z,83.64
2023-01-17T05:37:49.212Z,82.11
2023-01-17T05:40:16.677Z,82.47
2023-01-17T05:42:47.007Z,83.44
2023-01-17T05:45:17.003Z,83.08
2023-01-17T05:47:44.463Z,82.62
2023-01-17T05:50:12.574Z,82.44
2023-01-17T05:52:40.308Z,82.60
2023-01-17T05:55:08.234Z,82.86
2023-01-17T05:57:35.575Z,83.06
2023-01-17T06:00:05.342Z,84.25
2023-01-17T06:02:32.644Z,84.31
2023-01-17T06:05:02.485Z,83.85
2023-01-17T06:07:30.653Z,83.91
2023-01-17T06:09:57.940Z,83.03
2023-01-17T06:12:25.190Z,82.56
2023-01-17T06:14:52.480Z,82.10
2023-01-17T06:17:21.215Z,81.73
2023-01-17T06:19:48.582Z,83.25
2023-01-17T06:22:15.818Z,82.58
2023-01-17T06:24:43.104Z,81.06
2023-01-17T06:27:10.848Z,81.57
2023-01-17T06:29:38.426Z,81.92
2023-01-17T06:32:05.725Z,81.84
2023-01-17T06:34:34.488Z,83.80
2023-01-17T06:37:01.661Z,88.04
2023-01-17T06:39:28.989Z,81.56
2023-01-17T06:41:59.026Z,81.53
2023-01-17T06:44:26.474Z,80.41
2023-01-17T06:46:54.208Z,81.56
2023-01-17T06:49:21.526Z,84.79
2023-01-17T06:51:50.700Z,80.08
2023-01-17T06:54:19.003Z,81.20
2023-01-17T06:56:46.343Z,80.36
2023-01-17T06:59:13.620Z,80.99
2023-01-17T07:01:41.675Z,82.23
2023-01-17T07:04:12.397Z,81.88
2023-01-17T07:06:39.687Z,82.32
2023-01-17T07:12:17.242Z,82.36
2023-01-17T07:14:44.854Z,83.69
2023-01-17T07:17:15.269Z,86.36
2023-01-17T07:19:43.142Z,84.21
2023-01-17T07:22:13.438Z,86.73
2023-01-17T07:24:44.950Z,86.00
2023-01-17T07:27:12.405Z,85.13
2023-01-17T07:29:39.689Z,83.41
2023-01-17T07:32:11.108Z,83.92
2023-01-17T07:34:38.367Z,83.21
2023-01-17T07:37:06.461Z,84.27
2023-01-17T07:39:55.625Z,85.64
2023-01-17T07:42:24.550Z,84.55
2023-01-17T07:44:51.876Z,82.67
2023-01-17T07:47:20.235Z,80.40
2023-01-17T07:49:47.655Z,80.81
2023-01-17T07:52:16.920Z,82.25
2023-01-17T07:54:48.602Z,83.40
2023-01-17T07:57:17.915Z,82.44
2023-01-17T07:59:45.482Z,82.67
2023-01-17T08:02:20.076Z,83.21
2023-01-17T08:04:57.369Z,82.69
2023-01-17T08:07:24.852Z,83.11
2023-01-17T08:09:52.164Z,82.51
2023-01-17T08:12:30.817Z,82.10
2023-01-17T08:15:06.658Z,81.93
2023-01-17T08:17:34.498Z,81.06
2023-01-17T08:20:08.978Z,79.82
2023-01-17T08:22:36.415Z,79.75
2023-01-17T08:25:11.151Z,81.42
2023-01-17T08:28:31.923Z,80.25
2023-01-17T08:31:14.381Z,80.87
2023-01-17T08:33:41.879Z,81.07
2023-01-17T08:36:15.995Z,80.81
2023-01-17T08:38:43.412Z,79.44
2023-01-17T08:41:10.956Z,80.41
2023-01-17T08:43:38.489Z,80.88
2023-01-17T08:46:07.261Z,79.61
2023-01-17T08:48:34.743Z,79.59
2023-01-17T08:51:02.472Z,79.20
2023-01-17T08:53:29.892Z,78.66
2023-01-17T08:57:10.995Z,79.26
2023-01-17T08:59:43.734Z,78.13
2023-01-17T09:02:15.275Z,78.67
2023-01-17T09:04:48.404Z,79.37
2023-01-17T09:07:17.074Z,80.30
2023-01-17T09:09:45.058Z,81.51
2023-01-17T09:12:12.704Z,80.29
2023-01-17T09:14:40.207Z,79.98
2023-01-17T09:17:07.601Z,78.72
2023-01-17T09:19:39.100Z,78.52
2023-01-17T09:22:06.793Z,78.75
2023-01-17T09:24:34.665Z,79.14
2023-01-17T09:27:02.099Z,77.60
2023-01-17T09:29:29.793Z,77.89
2023-01-17T09:31:57.264Z,75.97
2023-01-17T09:34:24.629Z,77.39
2023-01-17T09:36:53.387Z,75.98
2023-01-17T09:39:23.788Z,76.82
2023-01-17T09:42:01.162Z,75.89
2023-01-17T09:44:33.549Z,75.38
2023-01-17T09:47:54.514Z,75.50
2023-01-17T09:50:30.677Z,74.77
2023-01-17T09:53:05.237Z,73.33
2023-01-17T09:55:42.283Z,73.47
2023-01-17T09:58:14.948Z,72.86
2023-01-17T10:00:54.189Z,73.44
2023-01-17T10:03:43.580Z,76.19
2023-01-17T10:06:41.400Z,74.91
2023-01-17T10:09:34.207Z,74.98
2023-01-17T10:12:14.580Z,74.98
2023-01-17T10:14:56.257Z,74.27
2023-01-17T10:17:32.841Z,73.85
2023-01-17T10:20:22.874Z,74.35
2023-01-17T10:23:14.816Z,74.19
2023-01-17T10:25:48.039Z,71.24
2023-01-17T10:28:28.372Z,72.70
2023-01-17T10:31:21.011Z,73.46
2023-01-17T10:33:52.557Z,73.00
2023-01-17T10:36:22.152Z,69.76
2023-01-17T10:38:52.816Z,69.70
2023-01-17T10:41:26.957Z,69.85
2023-01-17T10:44:03.815Z,67.73
2023-01-17T10:46:36.812Z,67.06
2023-01-17T10:49:04.930Z,66.97
2023-01-17T10:51:50.725Z,66.88
2023-01-17T10:54:31.834Z,66.27
2023-01-17T10:57:00.628Z,66.65
2023-01-17T10:59:31.374Z,66.02
2023-01-17T11:01:59.221Z,67.05
2023-01-17T11:04:35.172Z,67.13
2023-01-17T11:07:14.307Z,66.92
2023-01-17T11:09:43.480Z,68.54
2023-01-17T11:12:23.466Z,68.08
2023-01-17T11:15:05.089Z,65.98
2023-01-17T11:17:34.182Z,66.10
2023-01-17T11:20:17.309Z,65.68
2023-01-17T11:22:49.041Z,64.09
2023-01-17T11:25:24.703Z,66.75
2023-01-17T11:28:06.024Z,66.16
2023-01-17T11:30:34.092Z,66.07
2023-01-17T11:33:04.330Z,67.43
2023-01-17T11:35:37.569Z,67.61
2023-01-17T11:38:07.397Z,68.06
2023-01-17T11:52:50.535Z,65.43
2023-01-17T11:55:18.344Z,64.33
2023-01-17T11:57:52.385Z,65.44
2023-01-17T12:00:27.267Z,65.99
2023-01-17T12:03:16.251Z,66.04
2023-01-17T12:05:53.801Z,65.79
2023-01-17T12:08:36.680Z,65.76
2023-01-17T12:11:12.243Z,65.24
2023-01-17T12:14:01.522Z,67.19
2023-01-17T12:16:45.031Z,66.77
2023-01-17T12:19:32.761Z,66.11
2023-01-17T12:22:20.995Z,65.02
2023-01-17T12:25:15.051Z,65.98
2023-01-17T12:27:53.494Z,65.19
2023-01-17T12:30:34.448Z,64.91
2023-01-17T12:33:19.377Z,65.41
2023-01-17T12:35:53.394Z,66.51
2023-01-17T12:38:32.989Z,66.69
2023-01-17T12:41:26.802Z,67.60
2023-01-17T12:43:58.194Z,66.18
2023-01-17T12:46:31.287Z,68.24
2023-01-17T12:49:15.960Z,66.88
2023-01-17T12:51:47.485Z,67.41
2023-01-17T12:54:27.933Z,66.72
2023-01-17T12:57:04.963Z,66.41
2023-01-17T12:59:40.343Z,69.11
2023-01-17T13:02:26.665Z,67.08
2023-01-17T13:05:02.239Z,66.74
2023-01-17T13:07:41.067Z,69.03
2023-01-17T13:10:23.897Z,67.59
2023-01-17T13:12:56.940Z,68.24
2023-01-17T13:15:28.692Z,69.81
2023-01-17T13:18:02.970Z,68.36
2023-01-17T13:20:37.888Z,68.26
2023-01-17T13:23:12.568Z,67.38
2023-01-17T13:25:45.963Z,66.86
2023-01-17T13:28:24.821Z,64.61
2023-01-17T13:31:17.166Z,67.10
2023-01-17T13:33:57.999Z,66.40
2023-01-17T13:36:43.387Z,67.67
2023-01-17T13:39:29.834Z,67.77
2023-01-17T13:42:09.668Z,68.20
2023-01-17T13:44:38.273Z,67.69
2023-01-17T13:47:08.229Z,68.44
2023-01-17T13:49:45.268Z,67.69
2023-01-17T13:52:33.204Z,67.66
2023-01-17T13:55:02.777Z,67.02
2023-01-17T13:57:42.154Z,67.28
2023-01-17T14:00:58.240Z,67.33
2023-01-17T14:04:05.333Z,66.82
2023-01-17T14:06:40.705Z,67.65
2023-01-17T14:09:18.960Z,68.42
2023-01-17T14:11:57.076Z,69.66
2023-01-17T14:14:44.700Z,69.68
2023-01-17T14:17:46.177Z,69.37
2023-01-17T14:20:52.025Z,69.70
2023-01-17T14:23:40.918Z,69.97
2023-01-17T14:26:37.338Z,69.88
2023-01-17T14:29:41.989Z,70.21
2023-01-17T14:32:12.525Z,70.32
2023-01-17T14:34:40.191Z,70.29
2023-01-17T14:37:18.194Z,71.01
2023-01-17T14:39:49.627Z,70.66
2023-01-17T14:42:20.259Z,71.18
2023-01-17T14:44:56.776Z,71.16
2023-01-17T14:47:38.134Z,70.89
2023-01-17T14:50:20.289Z,70.66
2023-01-17T14:53:05.639Z,73.48
2023-01-17T14:55:33.030Z,74.41
2023-01-17T14:58:00.297Z,75.68
2023-01-17T15:00:31.159Z,74.21
2023-01-17T15:02:59.879Z,74.53
2023-01-17T15:05:29.964Z,74.54
2023-01-17T15:07:59.218Z,75.28
2023-01-17T15:10:30.041Z,75.24
2023-01-17T15:13:05.159Z,76.73
2023-01-17T15:15:37.481Z,77.29
2023-01-17T15:18:09.668Z,78.74
2023-01-17T15:20:38.034Z,78.64
2023-01-17T15:23:08.612Z,78.26
2023-01-17T15:25:36.932Z,78.72
2023-01-17T15:28:05.645Z,79.80
2023-01-17T15:30:32.961Z,79.59
2023-01-17T15:33:00.337Z,81.09
2023-01-17T15:35:28.483Z,80.67
2023-01-17T15:37:58.323Z,80.73
2023-01-17T15:40:28.142Z,80.83
2023-01-17T15:42:58.358Z,81.28
2023-01-17T15:45:28.883Z,82.77
2023-01-17T15:47:56.655Z,82.02
2023-01-17T15:50:30.691Z,80.96
2023-01-17T15:53:01.078Z,81.05
2023-01-17T15:55:34.439Z,81.58
2023-01-17T15:58:02.754Z,81.41
2023-01-17T16:00:37.888Z,80.35
2023-01-17T16:03:20.739Z,82.58
2023-01-17T16:05:49.326Z,80.47
2023-01-17T16:08:32.021Z,82.60
2023-01-17T16:11:02.640Z,82.02
2023-01-17T16:13:32.465Z,81.34
2023-01-17T16:16:22.132Z,81.68
2023-01-17T16:18:57.738Z,82.15
2023-01-17T16:21:29.873Z,81.29
2023-01-17T16:23:57.902Z,81.05
2023-01-17T16:26:28.684Z,81.55
2023-01-17T16:28:56.165Z,84.30
2023-01-17T16:31:23.621Z,84.58
2023-01-17T16:33:51.199Z,83.57
2023-01-17T16:36:18.547Z,83.61
2023-01-17T16:38:48.599Z,82.14
2023-01-17T16:41:16.375Z,81.24
2023-01-17T16:43:45.138Z,80.46
2023-01-17T16:46:12.559Z,81.35
2023-01-17T16:48:39.938Z,81.33
2023-01-17T16:51:08.348Z,81.89
2023-01-17T16:53:37.051Z,81.90
2023-01-17T16:56:12.121Z,83.61
2023-01-17T16:58:40.047Z,82.48
2023-01-17T17:01:15.533Z,85.29
2023-01-17T17:03:43.701Z,86.11
2023-01-17T17:06:11.724Z,85.22
2023-01-17T17:08:39.876Z,86.38
2023-01-17T17:11:14.700Z,85.80
2023-01-17T17:13:43.234Z,84.91
2023-01-17T17:16:20.238Z,85.35
2023-01-17T17:18:55.091Z,84.51
2023-01-17T17:21:22.913Z,83.38
2023-01-17T17:23:56.872Z,82.17
2023-01-17T17:26:26.813Z,85.22
2023-01-17T17:28:55.147Z,86.91
2023-01-17T17:31:24.520Z,87.08
2023-01-17T17:33:51.895Z,86.75
2023-01-17T17:36:19.471Z,87.69
2023-01-17T17:38:53.373Z,86.77
2023-01-17T17:41:22.019Z,85.22
2023-01-17T17:43:49.366Z,84.94
2023-01-17T17:46:16.818Z,83.49
2023-01-17T17:48:45.793Z,85.83
2023-01-17T17:51:22.839Z,86.26
2023-01-17T17:53:52.689Z,86.80
2023-01-17T17:56:20.730Z,83.70
2023-01-17T17:58:52.257Z,82.68
2023-01-17T18:01:22.609Z,83.08
2023-01-17T18:03:52.569Z,83.50
2023-01-17T18:06:20.703Z,82.90
2023-01-17T18:08:48.074Z,84.56
2023-01-17T18:11:18.707Z,83.14
2023-01-17T18:13:50.850Z,85.13
2023-01-17T18:16:21.116Z,85.63
2023-01-17T18:18:52.036Z,85.54
2023-01-17T18:21:25.153Z,84.46
2023-01-17T18:23:54.678Z,84.94
2023-01-17T18:26:23.910Z,83.66
2023-01-17T18:28:52.721Z,83.56
2023-01-17T18:31:20.561Z,85.18
2023-01-17T18:33:47.816Z,84.94
2023-01-17T18:36:17.066Z,83.93
2023-01-17T18:38:46.624Z,84.26
2023-01-17T18:41:16.337Z,85.00
2023-01-17T18:43:44.422Z,84.76
2023-01-17T18:46:12.421Z,83.82
2023-01-17T18:48:41.570Z,82.38
2023-01-17T18:51:10.705Z,84.05
2023-01-17T18:53:40.803Z,83.93
2023-01-17T18:56:11.402Z,85.29
2023-01-17T18:58:41.704Z,84.46
2023-01-17T19:01:11.603Z,84.91
2023-01-17T19:03:40.851Z,84.87
2023-01-17T19:06:11.232Z,82.48
2023-01-17T19:08:41.301Z,81.97
2023-01-17T19:11:09.337Z,83.18
2023-01-17T19:13:38.303Z,82.80
2023-01-17T19:16:07.867Z,82.89
2023-01-17T19:18:35.800Z,83.23
2023-01-17T19:21:04.521Z,83.97
2023-01-17T19:23:32.229Z,84.10
2023-01-17T19:26:01.214Z,84.59
2023-01-17T19:28:29.192Z,82.65
2023-01-17T19:31:03.625Z,82.42
2023-01-17T19:33:31.540Z,84.09
2023-01-17T19:36:00.234Z,86.48
2023-01-17T19:38:28.190Z,87.09
2023-01-17T19:40:55.733Z,86.45
2023-01-17T19:43:25.630Z,86.38
2023-01-17T19:45:58.640Z,86.71
2023-01-17T19:48:26.892Z,86.45
2023-01-17T19:50:54.939Z,87.24
2023-01-17T19:53:22.428Z,86.93
2023-01-17T19:55:50.061Z,86.54
2023-01-17T19:58:17.617Z,83.38
2023-01-17T20:00:47.016Z,85.38
2023-01-17T20:03:14.400Z,85.86
2023-01-17T20:05:41.896Z,85.95
2023-01-17T20:08:09.953Z,85.69
2023-01-17T20:10:37.533Z,85.48
2023-01-17T20:13:05.365Z,86.16
2023-01-17T20:15:34.476Z,86.07
2023-01-17T20:18:04.197Z,86.25
2023-01-17T20:20:34.604Z,86.00
2023-01-17T20:23:05.578Z,86.16
2023-01-17T20:25:32.905Z,86.29
2023-01-17T20:28:00.137Z,86.43
2023-01-17T20:30:30.605Z,85.68
2023-01-17T20:32:57.882Z,86.07
2023-01-17T20:35:28.813Z,83.11
2023-01-17T20:37:58.008Z,80.61
2023-01-17T20:40:25.731Z,81.98
2023-01-17T20:42:52.979Z,83.81
2023-01-17T20:45:20.245Z,83.23
2023-01-17T20:47:48.568Z,84.52
2023-01-17T20:50:16.347Z,85.49
2023-01-17T20:52:47.357Z,86.67
2023-01-17T20:55:14.792Z,86.25
2023-01-17T20:57:42.598Z,83.99
2023-01-17T21:00:12.389Z,82.91
2023-01-17T21:02:39.670Z,82.28
2023-01-17T21:05:07.869Z,84.06
2023-01-17T21:07:35.164Z,84.06
2023-01-17T21:10:04.201Z,84.05
2023-01-17T21:12:31.856Z,84.34
2023-01-17T21:14:59.161Z,85.42
2023-01-17T21:17:26.473Z,83.59
2023-01-17T21:19:53.781Z,84.03
2023-01-17T21:22:21.105Z,85.49
2023-01-17T21:24:48.571Z,85.17
2023-01-17T21:27:17.506Z,83.82
2023-01-17T21:29:44.920Z,84.41
2023-01-17T21:32:12.155Z,87.03
2023-01-17T21:34:39.404Z,86.96
2023-01-17T21:37:07.560Z,86.24
2023-01-17T21:39:34.791Z,87.67
2023-01-17T21:42:02.148Z,85.49
2023-01-17T21:44:36.440Z,85.47
2023-01-17T21:47:03.918Z,86.03
2023-01-17T21:49:31.224Z,86.54
2023-01-17T21:51:59.412Z,84.14
2023-01-17T21:54:46.180Z,84.68
2023-01-17T21:57:33.348Z,83.30
2023-01-17T22:00:02.239Z,83.02
2023-01-17T22:02:29.550Z,82.80
2023-01-17T22:04:56.881Z,83.77
2023-01-17T22:07:27.112Z,83.00
2023-01-17T22:09:54.912Z,82.97
2023-01-17T22:12:22.152Z,85.44
2023-01-17T22:14:49.381Z,83.23
2023-01-17T22:17:18.198Z,83.58
2023-01-17T22:19:46.281Z,86.12
2023-01-17T22:22:13.862Z,85.98
2023-01-17T22:24:41.095Z,84.94
2023-01-17T22:27:11.212Z,87.21
2023-01-17T22:29:38.433Z,83.56
2023-01-17T22:32:05.891Z,84.77
2023-01-17T22:34:34.602Z,86.67
2023-01-17T22:37:04.058Z,85.63
2023-01-17T22:39:31.335Z,82.28
2023-01-17T22:41:58.812Z,82.14
2023-01-17T22:44:26.061Z,84.24
2023-01-17T22:46:53.532Z,86.83
2023-01-17T22:49:23.558Z,87.73
2023-01-17T22:51:52.197Z,88.27
2023-01-17T22:54:19.613Z,88.18
2023-01-17T22:56:46.939Z,88.68
2023-01-17T22:59:14.208Z,87.78
2023-01-17T23:01:41.689Z,87.65
2023-01-17T23:04:13.053Z,84.97
2023-01-17T23:06:41.202Z,84.81
2023-01-17T23:09:11.922Z,86.51
2023-01-17T23:11:41.232Z,88.00
2023-01-17T23:14:11.654Z,88.66
2023-01-17T23:16:58.679Z,87.49
2023-01-17T23:19:27.823Z,86.77
2023-01-17T23:22:15.171Z,85.32
2023-01-17T23:24:45.436Z,83.94
2023-01-17T23:27:33.469Z,86.78
2023-01-17T23:30:01.206Z,86.84
2023-01-17T23:32:28.892Z,86.27
2023-01-17T23:34:56.295Z,84.50
2023-01-17T23:37:47.547Z,84.79
2023-01-17T23:40:17.449Z,85.20
2023-01-17T23:43:03.191Z,86.89
2023-01-17T23:45:30.575Z,87.61
2023-01-17T23:47:57.891Z,87.75
2023-01-17T23:50:25.397Z,87.36
2023-01-17T23:52:52.716Z,85.49
2023-01-17T23:55:21.396Z,85.72
2023-01-17T23:57:49.655Z,88.11
